createdAt,value
2023-05-02T00:00:12.969Z,3.00
2023-05-02T00:02:41.676Z,3.10
2023-05-02T00:05:11.429Z,3.20
2023-05-02T00:07:39.711Z,3.00
2023-05-02T00:10:09.159Z,3.07
2023-05-02T00:12:37.444Z,3.37
2023-05-02T00:15:06.953Z,2.97
2023-05-02T00:17:34.968Z,3.30
2023-05-02T00:20:04.508Z,3.07
2023-05-02T00:22:33.912Z,3.33
2023-05-02T00:25:02.380Z,3.27
2023-05-02T00:27:31.929Z,2.70
2023-05-02T00:30:00.884Z,3.17
2023-05-02T00:32:29.499Z,3.40
2023-05-02T00:34:57.627Z,3.30
2023-05-02T00:37:28.955Z,3.17
2023-05-02T00:39:59.526Z,2.90
2023-05-02T00:42:29.356Z,3.10
2023-05-02T00:44:57.458Z,3.07
2023-05-02T00:47:25.559Z,3.07
2023-05-02T00:49:53.630Z,3.60
2023-05-02T00:52:21.774Z,3.33
2023-05-02T00:54:50.492Z,2.93
2023-05-02T00:57:19.886Z,3.20
2023-05-02T00:59:48.082Z,3.43
2023-05-02T01:02:33.334Z,3.00
2023-05-02T01:05:12.381Z,3.30
2023-05-02T01:08:11.632Z,3.00
2023-05-02T01:10:51.234Z,3.10
2023-05-02T01:13:23.828Z,3.37
2023-05-02T01:15:54.370Z,3.30
2023-05-02T01:18:25.797Z,3.17
2023-05-02T01:21:01.975Z,3.17
2023-05-02T01:23:40.001Z,3.20
2023-05-02T01:26:21.312Z,3.50
2023-05-02T01:29:05.764Z,2.90
2023-05-02T01:31:37.827Z,3.13
2023-05-02T01:34:10.687Z,3.00
2023-05-02T01:36:45.072Z,2.83
2023-05-02T01:39:19.479Z,3.77
2023-05-02T01:41:53.401Z,2.90
2023-05-02T01:44:25.258Z,3.00
2023-05-02T01:46:55.955Z,3.37
2023-05-02T01:49:26.518Z,3.30
2023-05-02T01:51:54.911Z,3.33
2023-05-02T01:54:25.787Z,3.43
2023-05-02T01:56:53.995Z,3.50
2023-05-02T01:59:26.835Z,3.47
2023-05-02T02:01:56.053Z,3.60
2023-05-02T02:04:26.963Z,3.57
2023-05-02T02:07:04.304Z,4.10
2023-05-02T02:09:33.397Z,3.03
2023-05-02T02:12:08.062Z,3.43
2023-05-02T02:14:43.788Z,3.03
2023-05-02T02:17:16.406Z,3.30
2023-05-02T02:19:45.167Z,3.37
2023-05-02T02:22:16.196Z,3.30
2023-05-02T02:24:46.759Z,2.90
2023-05-02T02:27:15.244Z,3.40
2023-05-02T02:29:44.940Z,3.03
2023-05-02T02:32:14.069Z,2.80
2023-05-02T02:34:42.184Z,2.80
2023-05-02T02:37:19.002Z,3.03
2023-05-02T02:39:59.771Z,3.80
2023-05-02T02:42:40.622Z,2.93
2023-05-02T02:45:26.053Z,3.67
2023-05-02T02:48:09.625Z,3.10
2023-05-02T02:50:47.886Z,3.77
2023-05-02T02:53:21.688Z,3.83
2023-05-02T02:55:58.817Z,3.87
2023-05-02T02:58:48.292Z,3.53
2023-05-02T03:01:21.578Z,4.23
2023-05-02T03:03:50.592Z,3.63
2023-05-02T03:06:19.988Z,3.70
2023-05-02T03:08:48.606Z,4.03
2023-05-02T03:11:21.343Z,3.90
2023-05-02T03:13:49.624Z,3.50
2023-05-02T03:16:37.558Z,4.17
2023-05-02T03:19:09.607Z,4.10
2023-05-02T03:21:37.933Z,3.67
2023-05-02T03:24:17.739Z,3.87
2023-05-02T03:26:48.245Z,3.50
2023-05-02T03:29:19.659Z,3.67
2023-05-02T03:31:49.094Z,3.30
2023-05-02T03:34:17.343Z,3.57
2023-05-02T03:36:48.608Z,3.53
2023-05-02T03:39:17.198Z,4.30
2023-05-02T03:41:46.671Z,4.03
2023-05-02T03:44:18.785Z,4.23
2023-05-02T03:46:48.788Z,3.83
2023-05-02T03:49:19.688Z,4.30
2023-05-02T03:51:49.749Z,3.60
2023-05-02T03:54:22.690Z,3.83
2023-05-02T03:56:51.229Z,3.60
2023-05-02T03:59:25.316Z,4.00
2023-05-02T04:01:55.282Z,3.77
2023-05-02T04:04:30.067Z,3.80
2023-05-02T04:06:58.380Z,4.37
2023-05-02T04:09:26.615Z,4.00
2023-05-02T04:12:02.609Z,3.87
2023-05-02T04:14:32.395Z,3.80
2023-05-02T04:17:01.920Z,4.67
2023-05-02T04:19:41.081Z,3.60
2023-05-02T04:22:09.846Z,3.97
2023-05-02T04:24:43.092Z,4.37
2023-05-02T04:27:13.694Z,4.30
2023-05-02T04:29:43.409Z,4.07
2023-05-02T04:32:13.943Z,4.40
2023-05-02T04:34:42.114Z,3.87
2023-05-02T04:37:11.154Z,4.10
2023-05-02T04:39:39.996Z,3.97
2023-05-02T04:42:13.276Z,3.70
2023-05-02T04:44:50.276Z,4.00
2023-05-02T04:47:20.257Z,3.97
2023-05-02T04:49:48.363Z,4.10
2023-05-02T04:52:16.522Z,3.80
2023-05-02T04:54:45.305Z,4.23
2023-05-02T04:57:13.402Z,3.80
2023-05-02T04:59:46.320Z,3.83
2023-05-02T05:02:14.454Z,3.67
2023-05-02T05:04:45.692Z,3.73
2023-05-02T05:07:13.890Z,4.30
2023-05-02T05:09:43.930Z,4.30
2023-05-02T05:12:12.028Z,4.43
2023-05-02T05:14:40.131Z,4.37
2023-05-02T05:17:09.177Z,4.73
2023-05-02T05:19:37.351Z,4.40
2023-05-02T05:22:06.981Z,4.90
2023-05-02T05:24:35.144Z,4.77
2023-05-02T05:27:03.959Z,4.93
2023-05-02T05:29:33.648Z,5.93
2023-05-02T05:32:01.746Z,5.33
2023-05-02T05:34:30.948Z,6.00
2023-05-02T05:37:01.987Z,5.90
2023-05-02T05:39:31.692Z,5.73
2023-05-02T05:42:02.560Z,5.90
2023-05-02T05:44:31.773Z,5.90
2023-05-02T05:47:00.910Z,6.90
2023-05-02T05:49:29.574Z,6.60
2023-05-02T05:51:57.778Z,7.03
2023-05-02T05:54:26.147Z,6.57
2023-05-02T05:56:56.054Z,7.43
2023-05-02T05:59:24.195Z,6.83
2023-05-02T06:01:52.313Z,6.87
2023-05-02T06:04:22.953Z,7.20
2023-05-02T06:06:53.803Z,6.97
2023-05-02T06:09:21.846Z,6.53
2023-05-02T06:11:49.952Z,8.17
2023-05-02T06:14:19.340Z,7.90
2023-05-02T06:16:49.788Z,7.60
2023-05-02T06:19:17.878Z,7.20
2023-05-02T06:21:45.898Z,9.03
2023-05-02T06:24:13.988Z,8.93
2023-05-02T06:26:41.988Z,8.83
2023-05-02T06:29:10.046Z,8.53
2023-05-02T06:31:39.536Z,9.33
2023-05-02T06:34:07.899Z,10.50
2023-05-02T06:36:35.958Z,9.50
2023-05-02T06:39:04.043Z,10.17
2023-05-02T06:41:32.043Z,9.63
2023-05-02T06:44:00.116Z,9.70
2023-05-02T06:46:31.494Z,9.70
2023-05-02T06:49:00.936Z,10.00
2023-05-02T06:51:29.634Z,9.27
2023-05-02T06:53:57.675Z,9.87
2023-05-02T06:56:26.515Z,9.83
2023-05-02T06:58:54.672Z,9.73
2023-05-02T07:01:22.814Z,10.33
2023-05-02T07:03:50.980Z,10.00
2023-05-02T07:06:20.692Z,10.80
2023-05-02T07:08:48.931Z,11.13
2023-05-02T07:11:16.963Z,10.80
2023-05-02T07:13:45.014Z,11.63
2023-05-02T07:16:13.450Z,11.30
2023-05-02T07:18:42.314Z,11.87
2023-05-02T07:21:10.434Z,11.60
2023-05-02T07:23:39.787Z,12.37
2023-05-02T07:26:08.094Z,11.27
2023-05-02T07:28:36.566Z,12.80
2023-05-02T07:31:04.579Z,11.67
2023-05-02T07:33:32.613Z,13.43
2023-05-02T07:36:02.555Z,12.73
2023-05-02T07:38:30.713Z,13.40
2023-05-02T07:41:01.629Z,14.27
2023-05-02T07:43:29.855Z,14.83
2023-05-02T07:45:58.326Z,16.00
2023-05-02T07:48:27.972Z,15.47
2023-05-02T07:50:56.109Z,14.13
2023-05-02T07:53:24.580Z,13.73
2023-05-02T07:55:52.616Z,15.63
2023-05-02T07:58:22.132Z,15.20
2023-05-02T08:00:50.345Z,16.00
2023-05-02T08:03:18.487Z,15.80
2023-05-02T08:08:38.873Z,15.90
2023-05-02T08:11:06.920Z,14.53
2023-05-02T08:13:36.264Z,16.03
2023-05-02T08:16:04.524Z,16.37
2023-05-02T08:18:32.574Z,16.73
2023-05-02T08:21:00.643Z,17.00
2023-05-02T08:23:28.732Z,15.60
2023-05-02T08:25:56.739Z,16.63
2023-05-02T08:28:24.789Z,16.20
2023-05-02T08:30:54.340Z,15.87
2023-05-02T08:33:22.687Z,15.33
2023-05-02T08:35:50.897Z,15.77
2023-05-02T08:38:18.935Z,14.90
2023-05-02T08:40:47.351Z,16.53
2023-05-02T08:43:18.690Z,15.07
2023-05-02T08:45:46.924Z,14.83
2023-05-02T08:48:17.909Z,15.63
2023-05-02T08:50:48.486Z,15.77
2023-05-02T08:53:17.744Z,15.10
2023-05-02T08:55:46.133Z,16.23
2023-05-02T08:58:15.521Z,16.90
2023-05-02T09:00:49.531Z,17.33
2023-05-02T09:03:32.519Z,18.57
2023-05-02T09:06:08.430Z,16.30
2023-05-02T09:08:37.067Z,16.63
2023-05-02T09:11:06.002Z,16.67
2023-05-02T09:13:37.485Z,15.23
2023-05-02T09:16:07.876Z,14.23
2023-05-02T09:18:41.671Z,14.63
2023-05-02T09:21:12.881Z,14.10
2023-05-02T09:23:43.927Z,14.17
2023-05-02T09:26:18.077Z,14.53
2023-05-02T09:28:47.379Z,14.53
2023-05-02T09:31:26.907Z,13.40
2023-05-02T09:33:58.835Z,13.47
2023-05-02T09:36:26.873Z,14.03
2023-05-02T09:39:09.912Z,12.07
2023-05-02T09:41:41.676Z,11.97
2023-05-02T09:44:12.552Z,10.03
2023-05-02T09:46:42.577Z,10.67
2023-05-02T09:49:12.490Z,10.97
2023-05-02T09:51:40.764Z,11.47
2023-05-02T09:54:08.838Z,10.57
2023-05-02T09:56:54.345Z,12.43
2023-05-02T09:59:22.379Z,11.47
2023-05-02T10:01:57.693Z,11.40
2023-05-02T10:04:28.735Z,10.40
2023-05-02T10:06:58.551Z,11.07
2023-05-02T10:09:28.035Z,11.97
2023-05-02T10:11:57.909Z,10.53
2023-05-02T10:14:29.531Z,11.13
2023-05-02T10:17:06.823Z,10.30
2023-05-02T10:19:46.398Z,10.77
2023-05-02T10:22:14.668Z,11.30
2023-05-02T10:24:43.432Z,11.47
2023-05-02T10:27:11.567Z,10.53
2023-05-02T10:29:41.571Z,10.43
2023-05-02T10:32:10.106Z,10.77
2023-05-02T10:34:41.425Z,10.07
2023-05-02T10:37:10.370Z,10.03
2023-05-02T10:39:38.866Z,10.43
2023-05-02T10:42:08.308Z,10.30
2023-05-02T10:44:37.525Z,10.43
2023-05-02T10:47:21.372Z,10.53
2023-05-02T10:49:56.694Z,10.20
2023-05-02T10:52:32.937Z,10.20
2023-05-02T10:55:21.209Z,9.70
2023-05-02T10:58:23.909Z,10.20
2023-05-02T11:00:52.100Z,10.63
2023-05-02T11:03:58.522Z,11.60
2023-05-02T11:06:29.684Z,11.00
2023-05-02T11:09:34.083Z,11.73
2023-05-02T11:12:04.905Z,12.23
2023-05-02T11:14:52.095Z,11.73
2023-05-02T11:17:21.025Z,12.17
2023-05-02T11:20:26.501Z,10.80
2023-05-02T11:22:58.874Z,10.80
2023-05-02T11:25:39.414Z,11.97
2023-05-02T11:28:10.293Z,12.20
2023-05-02T11:30:44.729Z,11.53
2023-05-02T11:33:20.234Z,12.80
2023-05-02T11:35:51.593Z,13.60
2023-05-02T11:38:22.862Z,13.10
2023-05-02T11:41:00.942Z,12.97
2023-05-02T11:43:31.926Z,13.77
2023-05-02T11:46:02.559Z,13.33
2023-05-02T11:48:35.060Z,11.17
2023-05-02T11:51:07.189Z,13.20
2023-05-02T11:53:42.743Z,13.97
2023-05-02T11:56:10.922Z,13.27
2023-05-02T11:58:39.061Z,13.43
2023-05-02T12:01:33.982Z,13.87
2023-05-02T12:04:07.199Z,13.13
2023-05-02T12:06:36.134Z,13.50
2023-05-02T12:09:16.117Z,12.70
2023-05-02T12:11:45.805Z,12.57
2023-05-02T12:14:14.199Z,13.37
2023-05-02T12:16:43.154Z,12.40
2023-05-02T12:19:11.629Z,12.70
2023-05-02T12:21:39.693Z,11.83
2023-05-02T12:24:07.833Z,13.20
2023-05-02T12:26:43.216Z,12.80
2023-05-02T12:29:41.283Z,13.40
2023-05-02T12:32:09.853Z,12.10
2023-05-02T12:34:39.591Z,13.73
2023-05-02T12:37:09.315Z,14.03
2023-05-02T12:39:38.806Z,14.03
2023-05-02T12:42:15.717Z,14.60
2023-05-02T12:44:45.972Z,12.47
2023-05-02T12:47:16.720Z,12.63
2023-05-02T12:49:52.031Z,13.77
2023-05-02T12:52:21.003Z,12.27
2023-05-02T12:54:49.858Z,13.27
2023-05-02T12:57:26.829Z,13.43
2023-05-02T12:59:55.336Z,12.70
2023-05-02T13:02:23.869Z,12.10
2023-05-02T13:04:52.795Z,12.73
2023-05-02T13:07:20.957Z,12.53
2023-05-02T13:09:49.357Z,11.57
2023-05-02T13:12:18.173Z,11.07
2023-05-02T13:14:47.617Z,10.47
2023-05-02T13:17:15.834Z,10.17
2023-05-02T13:20:01.549Z,9.97
2023-05-02T13:22:30.675Z,8.80
2023-05-02T13:24:58.773Z,10.50
2023-05-02T13:27:28.074Z,10.83
2023-05-02T13:29:57.510Z,12.27
2023-05-02T13:32:25.794Z,9.93
2023-05-02T13:34:53.883Z,10.83
2023-05-02T13:37:22.134Z,11.00
2023-05-02T13:39:50.164Z,9.67
2023-05-02T13:42:18.265Z,9.43
2023-05-02T13:44:46.412Z,8.83
2023-05-02T13:47:15.888Z,10.33
2023-05-02T13:49:43.874Z,8.73
2023-05-02T13:52:11.859Z,8.13
2023-05-02T13:54:40.416Z,6.83
2023-05-02T13:57:08.441Z,7.10
2023-05-02T13:59:36.541Z,7.27
2023-05-02T14:02:04.745Z,8.33
2023-05-02T14:04:34.398Z,8.03
2023-05-02T14:07:02.584Z,7.97
2023-05-02T14:09:30.727Z,7.73
2023-05-02T14:11:59.181Z,7.70
2023-05-02T14:14:27.305Z,8.03
2023-05-02T14:16:55.967Z,8.20
2023-05-02T14:19:24.055Z,7.00
2023-05-02T14:21:53.626Z,7.17
2023-05-02T14:24:21.698Z,7.37
2023-05-02T14:26:49.886Z,8.80
2023-05-02T14:29:18.089Z,7.97
2023-05-02T14:31:46.558Z,7.37
2023-05-02T14:34:14.642Z,6.80
2023-05-02T14:36:42.682Z,6.80
2023-05-02T14:39:12.293Z,6.27
2023-05-02T14:41:40.338Z,6.97
2023-05-02T14:44:08.909Z,7.07
2023-05-02T14:46:37.010Z,6.90
2023-05-02T14:49:05.073Z,6.63
2023-05-02T14:51:33.157Z,7.20
2023-05-02T14:54:01.484Z,6.97
2023-05-02T14:56:31.190Z,7.90
2023-05-02T14:58:59.502Z,7.77
2023-05-02T15:01:27.838Z,7.20
2023-05-02T15:04:06.697Z,7.13
2023-05-02T15:06:36.784Z,5.97
2023-05-02T15:09:05.902Z,5.80
2023-05-02T15:11:35.426Z,6.27
2023-05-02T15:14:03.613Z,5.23
2023-05-02T15:16:32.146Z,5.80
2023-05-02T15:19:00.340Z,5.67
2023-05-02T15:21:28.616Z,4.83
2023-05-02T15:23:57.042Z,4.40
2023-05-02T15:26:26.026Z,4.17
2023-05-02T15:28:55.683Z,4.10
2023-05-02T15:31:24.600Z,4.13
2023-05-02T15:33:52.763Z,4.10
2023-05-02T15:36:21.305Z,3.80
2023-05-02T15:38:49.387Z,4.07
2023-05-02T15:41:17.529Z,3.70
2023-05-02T15:43:45.632Z,4.43
2023-05-02T15:46:15.288Z,3.27
2023-05-02T15:48:43.457Z,2.90
2023-05-02T15:51:13.512Z,3.33
2023-05-02T15:53:44.348Z,2.77
2023-05-02T15:56:13.238Z,2.60
2023-05-02T15:58:41.600Z,2.70
2023-05-02T16:01:09.922Z,2.50
2023-05-02T16:03:39.438Z,2.37
2023-05-02T16:06:08.893Z,2.67
2023-05-02T16:08:37.065Z,2.70
2023-05-02T16:11:05.197Z,2.73
2023-05-02T16:13:33.579Z,3.03
2023-05-02T16:16:01.747Z,3.00
2023-05-02T16:18:29.813Z,2.20
2023-05-02T16:20:59.451Z,1.70
2023-05-02T16:23:27.820Z,1.43
2023-05-02T16:25:59.003Z,1.73
2023-05-02T16:28:27.205Z,1.70
2023-05-02T16:30:55.441Z,1.40
2023-05-02T16:33:23.856Z,1.23
2023-05-02T16:36:02.856Z,1.67
2023-05-02T16:38:31.357Z,1.70
2023-05-02T16:40:59.665Z,1.60
2023-05-02T16:43:27.726Z,2.00
2023-05-02T16:46:02.714Z,1.57
2023-05-02T16:48:36.122Z,1.70
2023-05-02T16:51:06.969Z,1.60
2023-05-02T16:53:35.103Z,1.20
2023-05-02T16:56:03.100Z,1.60
2023-05-02T16:58:31.234Z,1.60
2023-05-02T17:01:01.011Z,1.57
2023-05-02T17:03:30.099Z,2.03
2023-05-02T17:06:01.657Z,1.70
2023-05-02T17:08:31.350Z,1.80
2023-05-02T17:10:59.373Z,2.13
2023-05-02T17:13:27.490Z,2.13
2023-05-02T17:15:55.846Z,2.23
2023-05-02T17:18:24.026Z,1.97
2023-05-02T17:20:52.126Z,1.70
2023-05-02T17:23:20.266Z,2.00
2023-05-02T17:25:51.506Z,2.13
2023-05-02T17:28:20.033Z,2.37
2023-05-02T17:30:48.496Z,1.90
2023-05-02T17:33:16.612Z,1.83
2023-05-02T17:35:45.435Z,1.93
2023-05-02T17:38:13.470Z,2.47
2023-05-02T17:40:41.497Z,2.10
2023-05-02T17:43:10.975Z,1.73
2023-05-02T17:45:41.491Z,2.00
2023-05-02T17:48:09.594Z,2.00
2023-05-02T17:50:38.495Z,2.33
2023-05-02T17:53:07.151Z,2.37
2023-05-02T17:55:38.592Z,2.30
2023-05-02T17:58:06.662Z,2.67
2023-05-02T18:00:36.049Z,2.77
2023-05-02T18:03:04.341Z,2.83
2023-05-02T18:05:38.566Z,2.70
2023-05-02T18:08:07.237Z,2.60
2023-05-02T18:10:38.041Z,3.50
2023-05-02T18:13:06.317Z,3.07
2023-05-02T18:15:36.059Z,3.57
2023-05-02T18:18:04.345Z,2.50
2023-05-02T18:20:32.602Z,2.77
2023-05-02T18:23:01.284Z,2.63
2023-05-02T18:25:29.388Z,2.50
2023-05-02T18:27:57.458Z,2.57
2023-05-02T18:30:25.492Z,2.90
2023-05-02T18:32:55.835Z,2.97
2023-05-02T18:35:24.172Z,2.50
2023-05-02T18:37:52.475Z,2.57
2023-05-02T18:40:20.969Z,2.73
2023-05-02T18:42:49.012Z,2.87
2023-05-02T18:45:17.279Z,3.07
2023-05-02T18:47:45.472Z,2.80
2023-05-02T18:50:15.068Z,2.63
2023-05-02T18:52:43.186Z,3.57
2023-05-02T18:55:11.490Z,3.13
2023-05-02T18:57:39.665Z,3.10
2023-05-02T19:00:09.723Z,3.10
2023-05-02T19:02:37.853Z,3.93
2023-05-02T19:05:07.268Z,5.00
2023-05-02T19:07:38.452Z,6.93
2023-05-02T19:10:07.809Z,7.53
2023-05-02T19:12:35.849Z,5.87
2023-05-02T19:15:06.375Z,5.23
2023-05-02T19:17:35.041Z,3.90
2023-05-02T19:20:03.887Z,4.27
2023-05-02T19:22:34.508Z,4.20
2023-05-02T19:25:04.384Z,4.73
2023-05-02T19:27:32.654Z,4.60
2023-05-02T19:30:00.757Z,4.70
2023-05-02T19:32:28.752Z,5.50
2023-05-02T19:34:56.872Z,5.47
2023-05-02T19:37:24.994Z,4.47
2023-05-02T19:39:53.484Z,3.83
2023-05-02T19:42:23.233Z,3.37
2023-05-02T19:44:54.197Z,3.20
2023-05-02T19:47:22.453Z,2.50
2023-05-02T19:49:52.495Z,2.63
2023-05-02T19:52:20.537Z,2.27
2023-05-02T19:54:51.337Z,2.40
2023-05-02T19:57:22.403Z,2.23
2023-05-02T19:59:55.612Z,2.77
2023-05-02T20:02:24.781Z,2.67
2023-05-02T20:04:53.678Z,2.37
2023-05-02T20:07:21.707Z,2.40
2023-05-02T20:09:49.691Z,2.50
2023-05-02T20:12:17.722Z,3.00
2023-05-02T20:14:47.094Z,3.00
2023-05-02T20:17:15.115Z,2.40
2023-05-02T20:19:43.169Z,3.00
2023-05-02T20:22:12.927Z,2.67
2023-05-02T20:24:41.060Z,2.93
2023-05-02T20:27:09.822Z,2.90
2023-05-02T20:29:38.555Z,2.93
2023-05-02T20:32:08.281Z,3.17
2023-05-02T20:34:36.435Z,3.00
2023-05-02T20:37:06.809Z,2.90
2023-05-02T20:39:34.897Z,3.80
2023-05-02T20:42:04.220Z,3.47
2023-05-02T20:44:33.637Z,3.77
2023-05-02T20:47:01.728Z,3.30
2023-05-02T20:49:33.740Z,3.13
2023-05-02T20:52:05.369Z,3.50
2023-05-02T20:54:33.645Z,3.30
2023-05-02T20:57:03.357Z,2.93
2023-05-02T20:59:31.928Z,3.77
2023-05-02T21:02:00.167Z,3.50
2023-05-02T21:04:28.466Z,3.07
2023-05-02T21:06:57.838Z,3.23
2023-05-02T21:09:25.992Z,2.80
2023-05-02T21:11:54.242Z,3.13
2023-05-02T21:14:25.504Z,3.40
2023-05-02T21:16:54.331Z,2.80
2023-05-02T21:19:22.625Z,3.23
2023-05-02T21:21:50.925Z,2.97
2023-05-02T21:24:20.310Z,3.00
2023-05-02T21:26:48.421Z,3.50
2023-05-02T21:29:16.665Z,3.53
2023-05-02T21:31:44.789Z,3.10
2023-05-02T21:34:12.923Z,3.10
2023-05-02T21:36:42.056Z,3.57
2023-05-02T21:39:10.526Z,2.77
2023-05-02T21:41:40.021Z,3.63
2023-05-02T21:44:11.082Z,3.40
2023-05-02T21:46:39.258Z,3.80
2023-05-02T21:49:07.476Z,3.00
2023-05-02T21:51:38.634Z,3.10
2023-05-02T21:54:07.373Z,3.47
2023-05-02T21:56:35.440Z,3.37
2023-05-02T21:59:04.847Z,3.20
2023-05-02T22:01:32.919Z,3.67
2023-05-02T22:04:01.090Z,3.37
2023-05-02T22:06:29.455Z,3.63
2023-05-02T22:08:57.513Z,3.20
2023-05-02T22:11:25.607Z,3.30
2023-05-02T22:13:53.759Z,3.70
2023-05-02T22:16:23.144Z,3.43
2023-05-02T22:18:51.490Z,3.67
2023-05-02T22:21:19.761Z,3.83
2023-05-02T22:23:47.810Z,3.20
2023-05-02T22:26:15.816Z,3.80
2023-05-02T22:28:43.932Z,3.93
2023-05-02T22:31:12.277Z,3.73
2023-05-02T22:33:41.642Z,3.50
2023-05-02T22:36:10.177Z,3.50
2023-05-02T22:38:40.078Z,3.20
2023-05-02T22:41:08.293Z,3.27
2023-05-02T22:43:36.625Z,3.17
2023-05-02T22:46:04.722Z,3.23
2023-05-02T22:48:32.814Z,3.33
2023-05-02T22:51:02.248Z,3.80
2023-05-02T22:53:30.306Z,3.03
2023-05-02T22:55:58.418Z,3.37
2023-05-02T22:58:26.428Z,3.10
2023-05-02T23:00:54.562Z,3.13
2023-05-02T23:03:22.745Z,2.90
2023-05-02T23:05:50.969Z,3.23
2023-05-02T23:08:20.904Z,3.20
2023-05-02T23:10:49.113Z,3.20
2023-05-02T23:13:17.225Z,2.70
2023-05-02T23:15:45.247Z,2.93
2023-05-02T23:18:13.371Z,3.20
2023-05-02T23:20:41.437Z,3.00
2023-05-02T23:23:09.449Z,3.20
2023-05-02T23:25:39.657Z,3.03
2023-05-02T23:28:07.728Z,3.10
2023-05-02T23:30:35.906Z,2.80
2023-05-02T23:33:04.098Z,3.10
2023-05-02T23:35:32.894Z,3.03
2023-05-02T23:38:01.780Z,3.33
2023-05-02T23:40:29.809Z,2.97
2023-05-02T23:42:59.795Z,2.93
2023-05-02T23:45:27.866Z,3.43
2023-05-02T23:47:56.037Z,3.10
2023-05-02T23:50:24.095Z,3.40
2023-05-02T23:52:52.379Z,2.70
2023-05-02T23:55:20.459Z,2.80
2023-05-02T23:57:48.471Z,3.27
